Time;durP1;ratioP1;P1;durP2;ratioP2;P2;SDS_P1;SDS_P2;PMS_P1;PMS_P2;Temp;Humidity;BMP_temperature;BMP_pressure;BME280_temperature;BME280_humidity;BME280_pressure;Samples;Min_cycle;Max_cycle;Signal;HPM_P1;HPM_P2
2021/12/18 00:00:53;;;;;;;13.80;1.60;;;8.40;98.90;;;;;;5126342;27;39152;-60
2021/12/18 00:03:20;;;;;;;7.53;1.02;;;8.40;98.90;;;;;;5126688;27;37103;-61
2021/12/18 00:05:49;;;;;;;16.27;1.52;;;8.40;98.90;;;;;;5127547;27;35180;-61
2021/12/18 00:08:16;;;;;;;8.43;1.38;;;8.40;98.80;;;;;;5126714;27;37315;-61
2021/12/18 00:10:45;;;;;;;21.13;2.38;;;8.40;98.80;;;;;;5127599;27;38692;-61
2021/12/18 00:13:12;;;;;;;11.30;1.60;;;8.40;98.80;;;;;;5127124;27;36917;-62
2021/12/18 00:15:40;;;;;;;5.22;1.48;;;8.40;98.80;;;;;;5126358;27;36575;-61
2021/12/18 00:18:07;;;;;;;9.15;1.67;;;8.40;98.70;;;;;;5126963;27;37703;-61
2021/12/18 00:20:37;;;;;;;2.90;0.90;;;8.40;98.80;;;;;;5126120;27;36040;-61
2021/12/18 00:23:06;;;;;;;3.78;1.58;;;8.40;98.70;;;;;;5126841;27;37908;-61
2021/12/18 00:25:34;;;;;;;5.22;1.38;;;8.40;98.70;;;;;;5125460;27;37192;-61
2021/12/18 00:28:01;;;;;;;5.00;1.40;;;8.40;98.60;;;;;;5126739;27;38063;-61
2021/12/18 00:30:29;;;;;;;5.90;1.50;;;8.40;98.70;;;;;;5126276;27;36168;-61
2021/12/18 00:32:56;;;;;;;2.75;1.08;;;8.40;98.70;;;;;;5126097;27;36767;-62
2021/12/18 00:35:23;;;;;;;3.90;1.23;;;8.40;98.60;;;;;;5126489;27;37488;-61
2021/12/18 00:37:51;;;;;;;8.13;1.75;;;8.40;98.60;;;;;;5126832;27;39947;-61
2021/12/18 00:40:23;;;;;;;7.05;2.08;;;8.30;98.60;;;;;;5127035;27;37479;-61
2021/12/18 00:42:58;;;;;;;6.93;1.80;;;8.40;98.60;;;;;;5127810;27;36807;-61
2021/12/18 00:45:25;;;;;;;6.03;1.60;;;8.30;98.60;;;;;;5129678;27;36650;-61
2021/12/18 00:47:53;;;;;;;9.05;1.98;;;8.40;98.70;;;;;;5128758;27;37410;-61
2021/12/18 00:50:23;;;;;;;5.68;1.75;;;8.30;98.70;;;;;;5129900;27;37053;-61
2021/12/18 00:52:50;;;;;;;4.70;1.63;;;8.40;98.70;;;;;;5128677;27;37279;-61
2021/12/18 00:55:21;;;;;;;6.78;1.80;;;8.40;98.60;;;;;;5130111;27;37393;-63
2021/12/18 00:57:49;;;;;;;5.88;1.88;;;8.40;98.70;;;;;;5130375;27;38983;-63
2021/12/18 01:00:22;;;;;;;5.75;1.85;;;8.40;98.60;;;;;;5127969;27;36742;-63
2021/12/18 01:02:52;;;;;;;4.55;1.40;;;8.40;98.60;;;;;;5128875;27;38399;-61
2021/12/18 01:05:19;;;;;;;3.08;1.20;;;8.40;98.60;;;;;;5130248;27;35148;-61
2021/12/18 01:07:47;;;;;;;5.72;1.63;;;8.40;98.50;;;;;;5128763;27;38013;-61
2021/12/18 01:10:36;;;;;;;5.03;1.70;;;8.40;98.50;;;;;;5128469;27;37329;-61
2021/12/18 01:13:08;;;;;;;3.92;1.30;;;8.40;98.40;;;;;;5129152;27;35891;-61
2021/12/18 01:15:40;;;;;;;3.78;1.33;;;8.30;98.40;;;;;;5128747;27;36577;-61
2021/12/18 01:23:38;;;;;;;10.13;1.25;;;8.30;98.50;;;;;;5129360;27;40253;-61
2021/12/18 01:26:05;;;;;;;4.00;1.15;;;8.30;98.50;;;;;;5129068;27;36862;-61
2021/12/18 01:28:34;;;;;;;4.15;1.35;;;8.30;98.50;;;;;;5128805;27;38007;-61
2021/12/18 01:31:03;;;;;;;5.82;1.52;;;8.30;98.70;;;;;;5128212;27;36948;-61
2021/12/18 01:33:30;;;;;;;5.18;1.38;;;8.20;98.60;;;;;;5128736;27;37168;-61
2021/12/18 01:36:00;;;;;;;3.65;1.33;;;8.20;98.50;;;;;;5128304;27;36431;-61
2021/12/18 01:38:29;;;;;;;3.30;1.20;;;8.20;98.50;;;;;;5129230;27;36307;-61
2021/12/18 01:40:57;;;;;;;4.32;1.52;;;8.20;98.50;;;;;;5129255;27;35961;-61
2021/12/18 01:51:59;;;;;;;3.78;1.20;;;8.10;98.50;;;;;;5129191;27;38357;-61
2021/12/18 01:54:26;;;;;;;9.02;1.63;;;8.20;98.50;;;;;;5127887;27;36938;-61
2021/12/18 01:56:54;;;;;;;4.43;1.17;;;8.10;98.50;;;;;;5127224;27;37255;-61
2021/12/18 01:59:37;;;;;;;5.15;1.33;;;8.10;98.60;;;;;;5128849;27;38009;-61
2021/12/18 02:02:06;;;;;;;7.40;1.40;;;8.10;98.60;;;;;;5128846;27;37834;-61
2021/12/18 02:04:34;;;;;;;9.18;2.22;;;8.10;98.60;;;;;;5127898;27;38373;-61
2021/12/18 02:07:03;;;;;;;6.20;1.55;;;8.10;98.60;;;;;;5128416;27;36732;-61
2021/12/18 02:09:47;;;;;;;3.42;1.52;;;8.10;98.70;;;;;;5127598;27;37338;-61
2021/12/18 02:12:15;;;;;;;3.25;1.55;;;8.00;98.70;;;;;;5126940;27;34197;-61
2021/12/18 02:20:25;;;;;;;3.30;1.30;;;8.10;98.70;;;;;;5128300;27;37462;-61
2021/12/18 02:22:54;;;;;;;3.05;1.20;;;8.10;98.80;;;;;;5127358;27;38314;-61
2021/12/18 02:25:23;;;;;;;3.38;1.17;;;8.00;98.80;;;;;;5127514;27;37111;-63
2021/12/18 02:27:51;;;;;;;8.07;1.40;;;8.00;98.80;;;;;;5128603;27;38109;-63
2021/12/18 02:30:21;;;;;;;2.28;0.75;;;8.10;98.80;;;;;;5127782;27;40016;-64
2021/12/18 02:32:49;;;;;;;2.00;0.88;;;8.10;98.80;;;;;;5128405;27;36005;-63
2021/12/18 02:35:30;;;;;;;2.33;0.80;;;8.20;99.00;;;;;;5127517;27;38333;-63
2021/12/18 02:38:10;;;;;;;2.35;0.90;;;8.10;98.60;;;;;;5128779;27;38022;-63
2021/12/18 02:43:24;;;;;;;3.42;0.98;;;8.10;98.50;;;;;;5128441;27;39030;-64
2021/12/18 02:45:54;;;;;;;1.80;0.75;;;8.00;98.50;;;;;;5126554;27;38882;-62
2021/12/18 02:48:22;;;;;;;7.43;0.75;;;8.00;98.50;;;;;;5128074;27;35231;-61
2021/12/18 02:50:51;;;;;;;2.05;0.73;;;8.10;98.40;;;;;;5127909;27;37318;-61
2021/12/18 02:53:18;;;;;;;2.53;0.93;;;8.10;98.40;;;;;;5128208;27;36915;-61
2021/12/18 02:55:45;;;;;;;3.97;0.90;;;8.10;98.30;;;;;;5127161;27;38241;-61
2021/12/18 02:58:13;;;;;;;5.32;0.93;;;8.00;98.30;;;;;;5127602;27;36572;-61
2021/12/18 03:00:40;;;;;;;5.13;1.00;;;8.00;98.30;;;;;;5127025;27;36166;-62
2021/12/18 03:03:10;;;;;;;7.82;0.75;;;8.00;98.20;;;;;;5126382;27;38781;-59
2021/12/18 03:05:45;;;;;;;13.30;1.20;;;8.00;98.30;;;;;;5127568;27;36893;-59
2021/12/18 03:08:21;;;;;;;13.40;1.85;;;8.00;98.30;;;;;;5128753;27;35313;-59
2021/12/18 03:19:58;;;;;;;3.53;0.85;;;8.00;98.20;;;;;;5127918;27;37351;-59
2021/12/18 03:22:44;;;;;;;6.13;0.90;;;8.00;98.30;;;;;;5127307;27;38569;-59
2021/12/18 03:25:18;;;;;;;2.60;0.85;;;8.00;98.30;;;;;;5126656;27;38586;-59
2021/12/18 03:27:46;;;;;;;4.25;0.85;;;8.10;98.30;;;;;;5127945;27;37549;-59
2021/12/18 03:30:14;;;;;;;1.65;0.70;;;8.10;98.30;;;;;;5125143;27;36458;-59
2021/12/18 03:32:41;;;;;;;2.70;0.60;;;8.10;98.30;;;;;;5127321;27;37457;-59
2021/12/18 03:35:10;;;;;;;2.55;0.77;;;8.10;98.30;;;;;;5128461;27;37446;-59
2021/12/18 03:37:38;;;;;;;3.30;0.70;;;8.10;98.30;;;;;;5130333;27;37168;-59
2021/12/18 03:40:08;;;;;;;2.90;0.73;;;8.20;98.30;;;;;;5130888;27;36655;-59
2021/12/18 03:42:37;;;;;;;7.88;0.80;;;8.20;98.40;;;;;;5129690;27;37053;-59
2021/12/18 03:45:05;;;;;;;4.85;0.90;;;8.20;98.30;;;;;;5128631;27;37847;-59
2021/12/18 03:47:33;;;;;;;4.20;0.90;;;8.20;98.30;;;;;;5130985;27;37567;-59
2021/12/18 03:50:00;;;;;;;3.33;0.75;;;8.20;98.40;;;;;;5129512;27;36605;-59
2021/12/18 03:52:28;;;;;;;3.55;1.10;;;8.20;98.60;;;;;;5129882;27;38152;-59
2021/12/18 03:54:55;;;;;;;2.28;0.90;;;8.20;98.40;;;;;;5130687;27;38754;-59
2021/12/18 03:57:22;;;;;;;2.40;1.02;;;8.30;98.50;;;;;;5130014;27;37040;-59
2021/12/18 03:59:51;;;;;;;6.03;1.05;;;8.30;98.40;;;;;;5130235;27;37429;-59
2021/12/18 04:02:18;;;;;;;7.78;1.40;;;8.30;98.40;;;;;;5130871;27;38029;-59
2021/12/18 04:04:46;;;;;;;5.10;1.10;;;8.30;98.40;;;;;;5129957;27;37118;-59
2021/12/18 04:07:14;;;;;;;5.32;1.10;;;8.30;98.40;;;;;;5129689;27;36862;-59
2021/12/18 04:09:42;;;;;;;4.18;1.15;;;8.30;98.50;;;;;;5130483;27;37465;-59
2021/12/18 04:12:11;;;;;;;4.18;1.25;;;8.30;98.60;;;;;;5129997;27;38119;-59
2021/12/18 04:14:38;;;;;;;3.95;1.10;;;8.30;98.60;;;;;;5129755;27;37373;-59
2021/12/18 04:17:07;;;;;;;5.15;1.30;;;8.30;98.50;;;;;;5130594;27;36109;-59
2021/12/18 04:19:34;;;;;;;2.90;1.20;;;8.30;98.50;;;;;;5129422;27;36571;-59
2021/12/18 04:22:02;;;;;;;2.83;0.90;;;8.30;98.50;;;;;;5130396;27;37635;-59
2021/12/18 04:24:29;;;;;;;2.28;0.80;;;8.30;98.60;;;;;;5130183;27;37942;-59
2021/12/18 04:26:57;;;;;;;1.05;0.63;;;8.30;98.60;;;;;;5130753;27;35868;-59
2021/12/18 04:29:24;;;;;;;3.00;1.10;;;8.40;98.60;;;;;;5129225;27;37147;-59
2021/12/18 04:31:52;;;;;;;1.85;0.80;;;8.40;98.60;;;;;;5128901;27;37380;-59
2021/12/18 04:34:20;;;;;;;1.98;0.85;;;8.40;98.60;;;;;;5130140;27;36121;-59
2021/12/18 04:36:48;;;;;;;3.13;1.15;;;8.40;98.50;;;;;;5129866;27;36929;-59
2021/12/18 04:39:15;;;;;;;3.10;1.20;;;8.40;98.60;;;;;;5130695;27;37084;-59
2021/12/18 04:41:48;;;;;;;3.05;0.98;;;8.40;98.60;;;;;;5129275;27;37522;-59
2021/12/18 04:44:15;;;;;;;6.97;1.38;;;8.40;98.60;;;;;;5130464;27;37189;-59
2021/12/18 04:46:43;;;;;;;3.45;1.02;;;8.40;98.60;;;;;;5128429;27;37799;-59
2021/12/18 04:49:10;;;;;;;4.75;1.60;;;8.40;98.60;;;;;;5129945;27;35258;-59
2021/12/18 04:51:39;;;;;;;4.35;1.60;;;8.40;98.60;;;;;;5129421;27;37238;-59
2021/12/18 04:54:06;;;;;;;6.93;1.52;;;8.40;98.60;;;;;;5130220;27;38763;-59
2021/12/18 04:56:34;;;;;;;4.40;1.50;;;8.40;98.60;;;;;;5130017;27;36951;-59
2021/12/18 04:59:02;;;;;;;3.90;1.50;;;8.40;98.60;;;;;;5128863;27;37195;-59
2021/12/18 05:01:29;;;;;;;4.38;1.67;;;8.40;98.60;;;;;;5128772;27;37406;-59
2021/12/18 05:03:57;;;;;;;4.97;1.88;;;8.40;98.70;;;;;;5128809;27;38139;-59
2021/12/18 05:06:24;;;;;;;5.30;2.22;;;8.40;98.70;;;;;;5129650;27;37902;-59
2021/12/18 05:08:53;;;;;;;4.32;1.73;;;8.50;98.70;;;;;;5129738;27;35185;-59
2021/12/18 05:11:20;;;;;;;5.05;2.00;;;8.40;98.70;;;;;;5128794;27;38075;-59
2021/12/18 05:13:47;;;;;;;5.82;2.20;;;8.50;98.80;;;;;;5127680;27;37275;-59
2021/12/18 05:16:14;;;;;;;12.38;2.67;;;8.50;98.80;;;;;;5128064;27;36946;-59
2021/12/18 05:18:42;;;;;;;5.75;2.92;;;8.50;98.80;;;;;;5129069;27;38980;-59
2021/12/18 05:21:10;;;;;;;7.07;2.50;;;8.50;98.70;;;;;;5129470;27;37502;-59
2021/12/18 05:23:38;;;;;;;6.47;3.10;;;8.50;98.80;;;;;;5128879;27;38162;-59
2021/12/18 05:26:07;;;;;;;9.25;3.20;;;8.60;98.80;;;;;;5129233;27;38076;-59
2021/12/18 05:28:34;;;;;;;6.20;2.60;;;8.60;98.80;;;;;;5128036;27;37095;-59
2021/12/18 05:31:01;;;;;;;5.72;2.33;;;8.50;98.80;;;;;;5129493;27;41557;-59
2021/12/18 05:33:29;;;;;;;7.18;2.80;;;8.60;98.80;;;;;;5127891;27;37151;-59
2021/12/18 05:35:56;;;;;;;7.20;3.10;;;8.60;99.10;;;;;;5128399;27;36775;-61
2021/12/18 05:38:23;;;;;;;9.30;3.33;;;8.60;98.90;;;;;;5130286;27;36565;-61
2021/12/18 05:40:50;;;;;;;8.48;3.75;;;8.60;98.90;;;;;;5129906;27;37521;-61
2021/12/18 05:43:19;;;;;;;8.75;3.15;;;8.60;99.00;;;;;;5127936;27;36144;-61
2021/12/18 05:45:47;;;;;;;8.77;3.85;;;8.70;99.00;;;;;;5129610;27;35966;-61
2021/12/18 05:48:14;;;;;;;8.10;3.45;;;8.70;99.00;;;;;;5128299;27;37269;-61
2021/12/18 05:50:45;;;;;;;9.52;3.83;;;8.70;99.00;;;;;;5128837;27;38286;-59
2021/12/18 05:53:14;;;;;;;9.13;3.40;;;8.70;99.00;;;;;;5128517;27;37195;-59
2021/12/18 05:55:41;;;;;;;6.95;2.83;;;8.80;99.00;;;;;;5127096;27;36985;-59
2021/12/18 05:58:08;;;;;;;8.95;2.70;;;8.80;99.00;;;;;;5127442;27;36213;-59
2021/12/18 06:00:39;;;;;;;7.78;3.05;;;8.80;99.00;;;;;;5127057;27;37568;-59
2021/12/18 06:03:06;;;;;;;10.93;2.83;;;8.90;99.10;;;;;;5128135;27;37133;-59
2021/12/18 06:05:34;;;;;;;6.00;2.95;;;8.80;99.00;;;;;;5128239;27;37259;-59
2021/12/18 06:08:03;;;;;;;7.78;2.78;;;8.90;99.10;;;;;;5127892;27;38909;-59
2021/12/18 06:10:33;;;;;;;5.25;2.45;;;8.90;99.10;;;;;;5128036;27;39667;-59
2021/12/18 06:13:02;;;;;;;6.85;2.88;;;8.90;99.10;;;;;;5127977;27;35908;-59
2021/12/18 06:15:30;;;;;;;6.75;3.28;;;8.90;99.20;;;;;;5127883;27;37340;-59
2021/12/18 06:17:59;;;;;;;8.15;2.80;;;8.90;99.10;;;;;;5128756;27;36371;-59
2021/12/18 06:20:28;;;;;;;6.22;2.60;;;8.90;99.10;;;;;;5127852;27;37637;-59
2021/12/18 06:22:57;;;;;;;10.68;2.67;;;8.90;99.20;;;;;;5128839;27;37318;-59
2021/12/18 06:25:24;;;;;;;5.70;2.40;;;8.90;99.20;;;;;;5128155;27;37169;-59
2021/12/18 06:27:52;;;;;;;8.40;2.60;;;8.90;99.20;;;;;;5128902;27;36534;-59
2021/12/18 06:30:19;;;;;;;5.65;2.45;;;8.90;99.20;;;;;;5128130;27;36439;-59
2021/12/18 06:32:47;;;;;;;5.18;2.13;;;8.90;99.20;;;;;;5128491;27;40436;-59
2021/12/18 06:35:16;;;;;;;6.90;2.65;;;8.90;99.30;;;;;;5128436;27;37075;-59
2021/12/18 06:37:43;;;;;;;8.70;2.65;;;9.00;99.30;;;;;;5127076;27;36674;-59
2021/12/18 06:40:11;;;;;;;7.57;2.60;;;9.00;99.30;;;;;;5127594;27;37854;-59
2021/12/18 06:42:38;;;;;;;9.23;2.85;;;9.00;99.30;;;;;;5127751;27;36784;-59
2021/12/18 06:45:06;;;;;;;5.88;2.75;;;9.00;99.30;;;;;;5127972;27;36874;-59
2021/12/18 06:47:34;;;;;;;11.52;4.07;;;9.00;99.30;;;;;;5127343;27;37228;-59
2021/12/18 06:50:01;;;;;;;9.18;4.30;;;9.00;99.30;;;;;;5127133;27;37519;-59
2021/12/18 06:52:30;;;;;;;10.88;4.32;;;9.10;99.30;;;;;;5127041;27;36727;-59
2021/12/18 06:54:57;;;;;;;7.60;3.38;;;9.10;99.50;;;;;;5127941;27;36895;-59
2021/12/18 06:57:25;;;;;;;8.05;3.47;;;9.00;99.20;;;;;;5127014;27;38027;-59
2021/12/18 06:59:52;;;;;;;9.88;3.72;;;9.00;99.30;;;;;;5128256;27;36262;-59
2021/12/18 07:02:20;;;;;;;9.05;3.50;;;9.10;99.30;;;;;;5126547;27;37115;-59
2021/12/18 07:04:47;;;;;;;8.45;3.97;;;9.10;99.30;;;;;;5127147;27;37703;-59
2021/12/18 07:07:15;;;;;;;11.27;3.47;;;9.10;99.30;;;;;;5127476;27;35299;-59
2021/12/18 07:09:43;;;;;;;9.10;3.38;;;9.10;99.30;;;;;;5130753;27;36881;-59
2021/12/18 07:12:11;;;;;;;8.23;3.38;;;9.10;99.30;;;;;;5130180;27;38273;-59
2021/12/18 07:14:39;;;;;;;8.00;3.10;;;9.00;99.30;;;;;;5131031;27;37244;-59
2021/12/18 07:17:07;;;;;;;7.35;3.00;;;9.10;99.40;;;;;;5131011;27;37147;-59
2021/12/18 07:19:34;;;;;;;8.30;2.95;;;9.10;99.40;;;;;;5128883;27;38743;-59
2021/12/18 07:22:02;;;;;;;8.73;2.97;;;9.10;99.60;;;;;;5130877;27;37318;-59
2021/12/18 07:24:29;;;;;;;8.15;3.03;;;9.10;99.40;;;;;;5128316;27;37159;-59
2021/12/18 07:26:58;;;;;;;9.48;2.95;;;9.00;99.30;;;;;;5128903;27;36559;-59
2021/12/18 07:29:26;;;;;;;10.95;3.55;;;9.10;99.40;;;;;;5129185;27;38741;-59
2021/12/18 07:31:53;;;;;;;12.30;4.00;;;9.10;99.40;;;;;;5129912;27;35884;-59
2021/12/18 07:34:20;;;;;;;10.70;3.30;;;9.10;99.40;;;;;;5129918;27;37022;-61
2021/12/18 07:36:48;;;;;;;9.18;3.50;;;9.10;99.40;;;;;;5131254;27;37979;-61
2021/12/18 07:39:15;;;;;;;11.68;3.20;;;9.20;99.40;;;;;;5129601;27;37192;-60
2021/12/18 07:41:43;;;;;;;10.02;3.33;;;9.20;99.60;;;;;;5128608;27;37450;-61
2021/12/18 07:44:12;;;;;;;11.55;3.50;;;9.20;99.30;;;;;;5127670;27;36928;-61
2021/12/18 07:46:39;;;;;;;10.00;3.03;;;9.20;99.30;;;;;;5129453;27;36551;-60
2021/12/18 07:49:08;;;;;;;10.50;2.83;;;9.20;99.30;;;;;;5130098;27;36301;-61
2021/12/18 07:51:36;;;;;;;12.48;3.13;;;9.20;99.30;;;;;;5129586;27;38351;-60
2021/12/18 07:54:05;;;;;;;10.68;2.50;;;9.20;99.40;;;;;;5129274;27;38296;-60
2021/12/18 07:56:33;;;;;;;11.45;3.28;;;9.20;99.40;;;;;;5129195;27;36383;-61
2021/12/18 07:59:00;;;;;;;5.93;2.70;;;9.20;99.40;;;;;;5129459;27;36313;-60
2021/12/18 08:01:29;;;;;;;7.25;2.60;;;9.20;99.40;;;;;;5129843;27;36470;-61
2021/12/18 08:03:56;;;;;;;8.30;2.85;;;9.20;99.40;;;;;;5128320;27;37128;-61
2021/12/18 08:06:24;;;;;;;11.52;3.03;;;9.20;99.40;;;;;;5129462;27;36800;-61
2021/12/18 08:08:51;;;;;;;9.70;3.58;;;9.20;99.30;;;;;;5128191;27;36381;-60
2021/12/18 08:11:19;;;;;;;8.60;2.17;;;9.10;99.30;;;;;;5129492;27;37557;-60
2021/12/18 08:13:46;;;;;;;5.57;2.50;;;9.10;99.30;;;;;;5128101;27;37621;-61
2021/12/18 08:16:13;;;;;;;11.02;3.15;;;9.10;99.30;;;;;;5128125;27;35156;-61
2021/12/18 08:18:42;;;;;;;11.85;3.53;;;9.10;99.40;;;;;;5129572;27;37537;-61
2021/12/18 08:21:09;;;;;;;9.82;2.53;;;9.10;99.40;;;;;;5127855;27;37450;-62
2021/12/18 08:23:37;;;;;;;11.95;2.85;;;9.20;99.40;;;;;;5128912;27;36973;-61
2021/12/18 08:26:04;;;;;;;16.13;3.05;;;9.10;99.40;;;;;;5129430;27;36128;-61
2021/12/18 08:28:31;;;;;;;9.32;2.35;;;9.20;99.50;;;;;;5128001;27;38574;-61
2021/12/18 08:30:59;;;;;;;11.05;2.42;;;9.20;99.50;;;;;;5128290;27;37243;-62
2021/12/18 08:33:26;;;;;;;8.07;2.50;;;9.20;99.50;;;;;;5129244;27;35770;-62
2021/12/18 08:35:55;;;;;;;8.48;2.35;;;9.30;99.50;;;;;;5128747;27;36373;-61
2021/12/18 08:38:22;;;;;;;8.73;2.35;;;9.30;99.40;;;;;;5127596;27;38521;-61
2021/12/18 08:40:50;;;;;;;8.82;2.05;;;9.20;99.50;;;;;;5127838;27;37799;-61
2021/12/18 08:43:18;;;;;;;9.63;2.90;;;9.30;99.50;;;;;;5128433;27;35845;-62
2021/12/18 08:45:45;;;;;;;7.70;2.53;;;9.30;99.50;;;;;;5127613;27;36592;-61
2021/12/18 08:48:13;;;;;;;8.90;2.75;;;9.30;99.50;;;;;;5128569;27;36874;-62
2021/12/18 08:50:40;;;;;;;9.43;2.55;;;9.40;99.50;;;;;;5128388;27;36488;-62
2021/12/18 08:53:09;;;;;;;9.10;2.35;;;9.30;99.50;;;;;;5126379;27;36876;-62
2021/12/18 08:55:37;;;;;;;9.32;2.38;;;9.40;99.50;;;;;;5127086;27;36767;-62
2021/12/18 08:58:04;;;;;;;8.25;2.08;;;9.40;99.50;;;;;;5127769;27;39481;-62
2021/12/18 09:00:33;;;;;;;9.23;2.30;;;9.40;99.50;;;;;;5126135;27;37814;-62
2021/12/18 09:03:00;;;;;;;8.93;3.00;;;9.50;99.50;;;;;;5127971;27;36232;-62
2021/12/18 09:05:29;;;;;;;13.95;3.03;;;9.40;99.50;;;;;;5127060;27;36466;-62
2021/12/18 09:07:57;;;;;;;10.75;2.83;;;9.50;99.50;;;;;;5128317;27;37688;-62
2021/12/18 09:10:25;;;;;;;8.25;2.33;;;9.50;99.50;;;;;;5127400;27;40775;-61
2021/12/18 09:12:53;;;;;;;14.57;2.97;;;9.50;99.50;;;;;;5126446;27;38486;-61
2021/12/18 09:15:20;;;;;;;15.93;3.47;;;9.50;99.50;;;;;;5126240;27;36609;-61
2021/12/18 09:17:48;;;;;;;11.63;3.25;;;9.50;99.50;;;;;;5128126;27;38270;-61
2021/12/18 09:20:15;;;;;;;15.00;3.33;;;9.40;99.50;;;;;;5128305;27;37885;-62
2021/12/18 09:22:43;;;;;;;7.15;3.03;;;9.40;99.60;;;;;;5128539;27;37392;-61
2021/12/18 09:25:11;;;;;;;10.85;2.78;;;9.40;99.60;;;;;;5128355;27;35464;-62
2021/12/18 09:27:40;;;;;;;7.63;2.75;;;9.40;99.60;;;;;;5129255;27;37331;-61
2021/12/18 09:30:10;;;;;;;14.35;3.55;;;9.50;99.70;;;;;;5127554;27;37723;-62
2021/12/18 09:32:38;;;;;;;9.30;3.28;;;9.50;99.70;;;;;;5129112;27;36928;-62
2021/12/18 09:35:08;;;;;;;11.73;3.17;;;9.50;99.70;;;;;;5126747;27;38887;-62
2021/12/18 09:37:35;;;;;;;11.20;2.85;;;9.50;99.70;;;;;;5127772;27;36315;-61
2021/12/18 09:40:03;;;;;;;9.50;2.88;;;9.50;99.70;;;;;;5127040;27;38729;-62
2021/12/18 09:42:32;;;;;;;7.03;3.05;;;9.50;99.70;;;;;;5125476;27;38768;-62
2021/12/18 09:45:00;;;;;;;10.45;3.47;;;9.50;99.70;;;;;;5126191;27;36480;-62
2021/12/18 09:47:28;;;;;;;11.00;3.67;;;9.40;99.70;;;;;;5127003;27;37469;-62
2021/12/18 09:49:56;;;;;;;16.90;3.58;;;9.40;99.80;;;;;;5128262;27;37827;-62
2021/12/18 09:52:25;;;;;;;12.13;4.03;;;9.40;99.80;;;;;;5128199;27;36217;-62
2021/12/18 09:54:56;;;;;;;7.78;3.22;;;9.40;99.80;;;;;;5128287;27;37875;-62
2021/12/18 09:57:24;;;;;;;8.30;3.08;;;9.40;99.80;;;;;;5127310;27;36141;-62
2021/12/18 09:59:51;;;;;;;14.20;3.30;;;9.40;99.90;;;;;;5126871;27;37159;-62
2021/12/18 10:02:20;;;;;;;16.58;4.35;;;9.40;99.90;;;;;;5127983;27;37243;-62
2021/12/18 10:04:47;;;;;;;6.85;3.10;;;9.40;99.90;;;;;;5127544;27;36482;-62
2021/12/18 10:07:17;;;;;;;7.80;3.45;;;9.50;99.90;;;;;;5128467;27;37813;-62
2021/12/18 10:09:46;;;;;;;12.63;4.47;;;9.50;99.90;;;;;;5127886;27;38576;-62
2021/12/18 10:12:17;;;;;;;8.07;2.88;;;9.50;99.90;;;;;;5127437;27;37399;-61
2021/12/18 10:14:51;;;;;;;7.28;2.83;;;9.50;99.90;;;;;;5127930;27;37010;-62
2021/12/18 10:17:24;;;;;;;10.00;3.30;;;9.60;99.90;;;;;;5127366;27;37322;-62
2021/12/18 10:19:54;;;;;;;8.57;3.78;;;9.60;99.90;;;;;;5127675;27;36680;-62
2021/12/18 10:22:21;;;;;;;8.77;2.72;;;9.60;99.80;;;;;;5127045;27;37400;-62
2021/12/18 10:25:05;;;;;;;10.85;3.78;;;9.60;99.80;;;;;;5127592;27;35402;-62
2021/12/18 10:27:32;;;;;;;;;;;9.60;99.80;;;;;;5127973;27;37535;-62
2021/12/18 10:30:13;;;;;;;10.68;3.85;;;9.60;99.70;;;;;;5128144;27;37990;-62
2021/12/18 10:32:55;;;;;;;9.38;3.75;;;9.60;99.70;;;;;;5127608;27;37183;-62
2021/12/18 10:35:23;;;;;;;12.77;3.90;;;9.60;99.70;;;;;;5127015;27;37439;-62
2021/12/18 10:37:50;;;;;;;7.75;3.42;;;9.60;99.70;;;;;;5125658;27;37651;-62
2021/12/18 10:40:18;;;;;;;12.75;4.13;;;9.60;99.70;;;;;;5127476;27;38021;-62
2021/12/18 10:42:47;;;;;;;12.65;3.25;;;9.60;99.70;;;;;;5124407;27;37445;-62
2021/12/18 10:45:17;;;;;;;8.60;3.78;;;9.60;99.70;;;;;;5125482;27;36791;-62
2021/12/18 10:47:55;;;;;;;11.93;3.72;;;9.60;99.70;;;;;;5124884;27;38864;-62
2021/12/18 10:50:32;;;;;;;6.70;2.92;;;9.60;99.70;;;;;;5126137;27;38040;-61
2021/12/18 10:53:02;;;;;;;9.35;3.10;;;9.70;99.70;;;;;;5126583;27;37167;-60
2021/12/18 10:55:35;;;;;;;10.30;2.97;;;9.70;99.70;;;;;;5126526;27;36781;-60
2021/12/18 10:58:04;;;;;;;9.98;2.80;;;9.70;99.70;;;;;;5126913;27;36185;-60
2021/12/18 11:00:44;;;;;;;6.95;2.53;;;9.70;99.50;;;;;;5126386;27;39088;-60
2021/12/18 11:03:27;;;;;;;10.80;2.53;;;9.70;99.50;;;;;;5127061;27;36163;-60
2021/12/18 11:06:18;;;;;;;9.73;2.70;;;9.70;99.50;;;;;;5126197;27;36726;-60
2021/12/18 11:09:08;;;;;;;6.72;2.30;;;9.80;99.50;;;;;;5126922;27;37442;-61
2021/12/18 11:14:26;;;;;;;6.45;2.00;;;9.70;99.40;;;;;;5126131;27;39355;-60
2021/12/18 11:16:56;;;;;;;6.10;1.92;;;9.80;99.40;;;;;;5126775;27;37947;-62
2021/12/18 11:19:26;;;;;;;7.47;2.28;;;9.80;99.30;;;;;;5124853;27;37501;-62
2021/12/18 11:21:56;;;;;;;9.93;1.92;;;9.80;99.30;;;;;;5126636;27;39834;-62
2021/12/18 11:24:30;;;;;;;5.72;1.77;;;9.80;99.30;;;;;;5126257;27;36789;-62
2021/12/18 11:27:00;;;;;;;11.23;2.40;;;9.80;99.40;;;;;;5126750;27;36510;-62
2021/12/18 11:29:34;;;;;;;11.50;2.30;;;9.80;99.20;;;;;;5123952;27;36418;-62
2021/12/18 11:32:02;;;;;;;9.70;2.53;;;9.80;99.30;;;;;;5126886;27;36565;-62
2021/12/18 11:34:32;;;;;;;12.05;3.00;;;9.90;99.20;;;;;;5125494;27;39134;-62
2021/12/18 11:37:00;;;;;;;8.18;2.53;;;9.90;99.20;;;;;;5126150;27;35397;-62
2021/12/18 11:39:31;;;;;;;8.93;1.95;;;9.90;99.20;;;;;;5126318;27;40097;-62
2021/12/18 11:41:58;;;;;;;7.93;2.55;;;9.80;99.00;;;;;;5122248;27;36474;-62
2021/12/18 11:44:29;;;;;;;13.93;3.20;;;9.90;99.00;;;;;;5124259;27;37371;-62
2021/12/18 11:46:58;;;;;;;12.73;2.90;;;9.90;99.00;;;;;;5125805;27;37321;-62
2021/12/18 11:49:43;;;;;;;9.88;2.65;;;9.90;99.00;;;;;;5126387;27;39597;-62
2021/12/18 11:52:11;;;;;;;8.38;2.95;;;10.00;99.00;;;;;;5126712;27;38124;-62
2021/12/18 11:54:45;;;;;;;9.70;2.78;;;9.90;98.80;;;;;;5124888;27;37885;-62
2021/12/18 11:57:14;;;;;;;7.60;2.25;;;9.90;98.80;;;;;;5127348;27;36726;-62
2021/12/18 11:59:43;;;;;;;8.98;2.72;;;10.00;98.90;;;;;;5129380;27;38955;-62
2021/12/18 12:02:12;;;;;;;9.82;2.53;;;10.00;98.90;;;;;;5128916;27;36528;-62
2021/12/18 12:05:01;;;;;;;13.75;3.47;;;9.90;98.80;;;;;;5129682;27;37021;-62
2021/12/18 12:07:28;;;;;;;13.70;2.83;;;10.00;98.80;;;;;;5129662;27;36006;-62
2021/12/18 12:10:21;;;;;;;11.65;3.28;;;10.00;98.60;;;;;;5128951;27;37524;-62
2021/12/18 12:12:52;;;;;;;26.95;5.07;;;10.00;98.80;;;;;;5128576;27;39435;-62
2021/12/18 12:15:20;;;;;;;11.82;3.17;;;10.00;98.80;;;;;;5129534;27;38405;-62
2021/12/18 12:17:59;;;;;;;7.03;2.75;;;10.00;98.70;;;;;;5129958;27;37336;-63
2021/12/18 12:20:36;;;;;;;12.52;2.95;;;10.00;98.90;;;;;;5129690;27;37342;-61
2021/12/18 12:23:05;;;;;;;9.52;3.10;;;10.00;98.70;;;;;;5129335;27;37483;-60
2021/12/18 12:25:45;;;;;;;7.72;2.45;;;10.00;98.70;;;;;;5128781;27;37682;-60
2021/12/18 12:28:15;;;;;;;9.35;2.53;;;10.00;98.60;;;;;;5129530;27;36622;-61
2021/12/18 12:30:46;;;;;;;9.07;3.00;;;10.00;98.60;;;;;;5129329;27;37160;-61
2021/12/18 12:33:23;;;;;;;10.02;2.53;;;10.00;98.60;;;;;;5129125;27;37309;-61
2021/12/18 12:35:58;;;;;;;10.10;2.10;;;10.00;98.60;;;;;;5127728;27;37180;-60
2021/12/18 12:38:28;;;;;;;8.63;2.60;;;10.00;98.50;;;;;;5129305;27;38925;-61
2021/12/18 12:40:57;;;;;;;15.68;3.08;;;10.10;98.50;;;;;;5130339;27;37527;-61
2021/12/18 12:43:29;;;;;;;13.18;3.08;;;10.10;98.50;;;;;;5129191;27;39198;-61
2021/12/18 12:46:04;;;;;;;16.83;3.22;;;10.10;98.40;;;;;;5126133;27;37992;-61
2021/12/18 12:49:00;;;;;;;10.60;3.78;;;10.10;98.30;;;;;;5129316;27;36523;-60
2021/12/18 12:52:15;;;;;;;10.75;3.30;;;10.10;98.20;;;;;;5128409;27;37748;-62
2021/12/18 12:54:52;;;;;;;10.60;2.67;;;10.10;98.20;;;;;;5128657;27;37897;-62
2021/12/18 12:57:38;;;;;;;11.20;2.10;;;10.10;98.20;;;;;;5127766;27;37124;-62
2021/12/18 13:00:51;;;;;;;10.50;2.67;;;10.10;98.10;;;;;;5128084;27;36591;-62
2021/12/18 13:03:31;;;;;;;12.50;2.40;;;10.10;98.10;;;;;;5128170;27;37630;-62
2021/12/18 13:06:08;;;;;;;10.15;2.13;;;10.00;98.10;;;;;;5129134;27;38446;-62
2021/12/18 13:08:39;;;;;;;12.25;2.38;;;10.00;98.10;;;;;;5130111;27;36022;-62
2021/12/18 13:11:07;;;;;;;11.25;2.35;;;10.00;98.10;;;;;;5129253;27;37652;-62
2021/12/18 13:13:36;;;;;;;14.38;2.90;;;10.00;98.10;;;;;;5129088;27;37959;-61
2021/12/18 13:16:10;;;;;;;7.10;2.10;;;10.00;98.10;;;;;;5128564;27;36456;-60
2021/12/18 13:18:39;;;;;;;9.60;1.98;;;10.00;98.00;;;;;;5129223;27;37410;-61
2021/12/18 13:21:09;;;;;;;7.35;1.98;;;10.00;98.10;;;;;;5129402;27;38547;-61
2021/12/18 13:24:00;;;;;;;10.90;2.00;;;9.90;98.30;;;;;;5129807;27;38058;-61
2021/12/18 13:26:33;;;;;;;10.27;2.00;;;10.00;98.00;;;;;;5128818;27;37143;-60
2021/12/18 13:29:06;;;;;;;12.18;2.35;;;10.00;97.90;;;;;;5127526;27;37557;-60
2021/12/18 13:31:38;;;;;;;10.60;2.10;;;9.90;97.90;;;;;;5126926;27;39045;-60
2021/12/18 13:34:08;;;;;;;7.90;1.95;;;10.00;97.90;;;;;;5128650;27;37706;-61
2021/12/18 13:36:41;;;;;;;10.02;1.60;;;9.90;97.80;;;;;;5128259;27;37674;-62
2021/12/18 13:39:12;;;;;;;9.13;1.70;;;9.90;97.80;;;;;;5128539;27;38007;-62
2021/12/18 13:41:39;;;;;;;12.13;2.60;;;9.90;97.70;;;;;;5127775;27;36776;-62